デンバー の空港の天気 - METARとTAF

デンバー国際空港 ( KDEN / DEN ) - アメリカ コロラド州デンバー
飛行場実況気象(Metar)
観測時間06/25 06:53 MDT (06/25 12:53 UTC)
風向・風速南西 5m/s
視程10km以上
天気現象
少しの雲 雲底高度 2440m
少しの雲 雲底高度 6710m
気温12.2℃
湿度77%
気圧1015.2hPa
METARKDEN 251253Z 22009KT 10SM FEW080 FEW220 12/08 A3014 RMK AO2 SLP152 T01220083
過去の天気等 Google飛行場航空写真 Wunderground天気予報

過去48時間のMETAR

飛行場予報(TAF)
発表時間: 6/25 05:23 MDT (6/25 11:23 UTC)
予報対象時間: 25日6時 MDT ~ 26日12時 MDT
風向・風速南西 3m/s
視程10km以上
少しの雲 雲底高度 6100m
25日12時 MDT から
風向・風速北北西 4m/s
視程10km以上
少しの雲 雲底高度 4270m
25日18時 MDT から
風向・風速東 5m/s
視程10km以上
全天の4割程度の雲 雲底高度 7620m
26日2時 MDT から
風向・風速南南西 4m/s
視程10km以上
なし
26日8時 MDT から
風向・風速北北西 4m/s
視程10km以上
なし
KDEN 251123Z 2512/2618 23006KT P6SM FEW200
FM251800 34008KT P6SM FEW140
FM260000 10009KT P6SM SCT250
FM260800 20007KT P6SM SKC
FM261400 33008KT P6SM SKC